Terminal Aerodrome Forecast
Issued by NWS

Home | Current Version | Previous Version | Text Only | Print | Product List | Glossary Off
Versions: 1 2 3 4 5 6 7 8 9 10 11 12 13 14

267
FTUS43 KBIS 021136
TAFJMS
TAF
KJMS 021136Z 0212/0312 23006KT P6SM VCSH BKN090
     FM021400 18006KT P6SM -SHRA BKN080
     FM021700 16008KT P6SM SCT150
     FM022300 16005KT P6SM SCT250
     FM030800 26005KT P6SM SCT250=

USA.gov is the U.S. government's official web portal to all federal, state and local government web resources and services.